Time;durP1;ratioP1;P1;durP2;ratioP2;P2;SDS_P1;SDS_P2;PMS_P1;PMS_P2;Temp;Humidity;BMP_temperature;BMP_pressure;BME280_temperature;BME280_humidity;BME280_pressure;Samples;Min_cycle;Max_cycle;Signal;HPM_P1;HPM_P2
2021/07/11 00:01:16;;;;;;;2.50;1.20;;;14.90;99.90;;;;;;5082196;28;20201;-82
2021/07/11 00:03:41;;;;;;;2.10;1.27;;;14.90;99.90;;;;;;5084464;28;20525;-82
2021/07/11 00:06:07;;;;;;;1.33;1.20;;;14.80;99.90;;;;;;5084852;28;20559;-82
2021/07/11 00:08:33;;;;;;;2.70;1.17;;;14.70;99.90;;;;;;5084321;28;20177;-82
2021/07/11 00:10:58;;;;;;;1.43;1.10;;;14.70;99.90;;;;;;5083288;28;20196;-83
2021/07/11 00:13:24;;;;;;;1.10;1.00;;;14.60;99.90;;;;;;5084083;28;20180;-82
2021/07/11 00:15:50;;;;;;;1.53;1.30;;;14.50;99.90;;;;;;5082560;28;20209;-82
2021/07/11 00:18:15;;;;;;;1.23;1.07;;;14.40;99.90;;;;;;5085123;28;20184;-82
2021/07/11 00:20:41;;;;;;;1.10;0.90;;;14.40;99.90;;;;;;5079769;28;20201;-82
2021/07/11 00:23:07;;;;;;;2.13;1.40;;;14.40;99.90;;;;;;5080411;28;20547;-82
2021/07/11 00:25:32;;;;;;;1.60;0.90;;;14.40;99.90;;;;;;5079296;28;20205;-83
2021/07/11 00:27:58;;;;;;;2.07;1.13;;;14.30;99.90;;;;;;5079978;28;20196;-82
2021/07/11 00:30:25;;;;;;;1.30;0.90;;;14.30;99.90;;;;;;5079342;28;20200;-82
2021/07/11 00:32:54;;;;;;;2.70;0.80;;;14.30;99.90;;;;;;5079047;28;20216;-82
2021/07/11 00:35:20;;;;;;;1.10;1.00;;;14.20;99.90;;;;;;5079668;28;20183;-82
2021/07/11 00:37:45;;;;;;;2.27;1.20;;;14.20;99.90;;;;;;5077470;28;20185;-82
2021/07/11 00:40:12;;;;;;;1.23;1.00;;;14.20;99.90;;;;;;5077448;28;20197;-82
2021/07/11 00:42:38;;;;;;;0.97;0.87;;;14.30;99.90;;;;;;5076366;28;20282;-81
2021/07/11 00:45:05;;;;;;;1.70;1.00;;;14.20;99.90;;;;;;5091308;28;20184;-82
2021/07/11 00:47:31;;;;;;;3.03;1.30;;;14.20;99.90;;;;;;5079978;28;20176;-82
2021/07/11 00:49:57;;;;;;;1.70;1.20;;;14.20;99.90;;;;;;5079739;28;20196;-82
2021/07/11 00:52:23;;;;;;;1.50;1.13;;;14.20;99.90;;;;;;5080028;28;20192;-82
2021/07/11 00:54:48;;;;;;;3.30;1.17;;;14.10;99.90;;;;;;5079795;28;20284;-82
2021/07/11 00:57:14;;;;;;;1.63;0.97;;;14.20;99.90;;;;;;5080459;28;20711;-82
2021/07/11 00:59:40;;;;;;;1.10;1.00;;;14.10;99.90;;;;;;5081541;28;20222;-82
2021/07/11 01:02:16;;;;;;;0.80;0.80;;;14.10;99.90;;;;;;5079627;28;20177;-83
2021/07/11 01:04:54;;;;;;;3.67;1.30;;;14.10;99.90;;;;;;5080980;28;20176;-82
2021/07/11 01:07:27;;;;;;;1.33;1.00;;;14.10;99.90;;;;;;5079651;28;20203;-83
2021/07/11 01:09:57;;;;;;;0.90;0.77;;;14.10;99.90;;;;;;5079932;28;20201;-82
2021/07/11 01:12:30;;;;;;;1.00;0.90;;;14.00;99.90;;;;;;5080920;28;20687;-82
2021/07/11 01:14:57;;;;;;;1.10;0.70;;;14.00;99.90;;;;;;5080357;28;20161;-82
2021/07/11 01:17:29;;;;;;;0.90;0.73;;;14.00;99.90;;;;;;5079158;28;20181;-83
2021/07/11 01:19:58;;;;;;;0.97;0.70;;;14.00;99.90;;;;;;5079426;28;20200;-83
2021/07/11 01:22:30;;;;;;;1.43;0.93;;;14.00;99.90;;;;;;5080459;28;20180;-83
2021/07/11 01:25:07;;;;;;;1.00;0.90;;;13.90;99.90;;;;;;5080906;28;20219;-83
2021/07/11 01:27:34;;;;;;;1.10;0.93;;;14.00;99.90;;;;;;5081598;28;20276;-83
2021/07/11 01:30:03;;;;;;;1.53;1.07;;;13.90;99.90;;;;;;5080884;28;20193;-83
2021/07/11 01:32:29;;;;;;;1.70;1.10;;;13.90;99.90;;;;;;5081980;28;20188;-83
2021/07/11 01:35:00;;;;;;;2.27;1.03;;;13.90;99.90;;;;;;5083558;28;20173;-83
2021/07/11 01:37:27;;;;;;;1.80;1.00;;;13.90;99.90;;;;;;5082072;28;20166;-83
2021/07/11 01:39:54;;;;;;;2.30;1.23;;;13.90;99.90;;;;;;5081493;28;20193;-83
2021/07/11 01:42:20;;;;;;;1.20;1.07;;;14.00;99.90;;;;;;5082537;28;20174;-83
2021/07/11 01:44:47;;;;;;;3.43;1.40;;;14.00;99.90;;;;;;5080700;28;20245;-83
2021/07/11 01:47:13;;;;;;;1.17;1.07;;;13.90;99.90;;;;;;5082032;28;20279;-83
2021/07/11 01:49:40;;;;;;;1.30;1.20;;;13.90;99.90;;;;;;5079682;28;20220;-83
2021/07/11 01:52:07;;;;;;;1.40;1.00;;;14.00;99.90;;;;;;5076599;28;20259;-83
2021/07/11 01:54:33;;;;;;;2.50;1.20;;;14.00;99.90;;;;;;5079219;28;20172;-83
2021/07/11 01:56:59;;;;;;;1.13;1.00;;;13.90;99.90;;;;;;5081930;28;20179;-83
2021/07/11 01:59:25;;;;;;;1.50;1.10;;;13.90;99.90;;;;;;5079429;28;20200;-84
2021/07/11 02:01:50;;;;;;;1.50;0.90;;;13.90;99.90;;;;;;5080232;28;20187;-84
2021/07/11 02:04:16;;;;;;;1.30;1.00;;;13.90;99.90;;;;;;5083054;28;20184;-82
2021/07/11 02:06:42;;;;;;;1.37;1.07;;;14.00;99.90;;;;;;5076930;28;20666;-83
2021/07/11 02:09:08;;;;;;;1.27;0.90;;;13.90;99.90;;;;;;5077727;28;20173;-82
2021/07/11 02:11:38;;;;;;;1.33;0.80;;;13.90;99.90;;;;;;5078182;28;20173;-83
2021/07/11 02:14:17;;;;;;;1.17;0.90;;;13.90;99.90;;;;;;5076632;28;20181;-83
2021/07/11 02:17:02;;;;;;;2.23;0.83;;;13.90;99.90;;;;;;5078326;28;20741;-83
2021/07/11 02:19:32;;;;;;;1.57;1.03;;;14.00;99.90;;;;;;5077181;28;20208;-82
2021/07/11 02:21:58;;;;;;;1.10;0.80;;;14.00;99.90;;;;;;5076679;28;20267;-82
2021/07/11 02:24:25;;;;;;;0.90;0.80;;;13.90;99.90;;;;;;5076014;28;20658;-82
2021/07/11 02:26:52;;;;;;;0.93;0.80;;;13.90;99.90;;;;;;5075687;28;20227;-83
2021/07/11 02:29:18;;;;;;;1.03;0.93;;;13.90;99.90;;;;;;5076143;28;20212;-83
2021/07/11 02:31:45;;;;;;;1.03;0.93;;;13.80;99.90;;;;;;5077106;28;20630;-82
2021/07/11 02:34:13;;;;;;;1.13;0.93;;;13.80;99.90;;;;;;5075935;28;20179;-82
2021/07/11 02:36:48;;;;;;;0.93;0.80;;;13.80;99.90;;;;;;5076456;28;20188;-82
2021/07/11 02:39:18;;;;;;;3.40;0.90;;;13.80;99.90;;;;;;5076082;28;20243;-82
2021/07/11 02:41:55;;;;;;;0.67;0.60;;;13.80;99.90;;;;;;5075679;28;20281;-82
2021/07/11 02:44:21;;;;;;;1.10;0.90;;;13.80;99.90;;;;;;5075851;28;20198;-82
2021/07/11 02:47:03;;;;;;;1.10;0.90;;;13.80;99.90;;;;;;5077341;28;20201;-83
2021/07/11 02:49:31;;;;;;;1.87;0.77;;;13.70;99.90;;;;;;5076768;28;20192;-82
2021/07/11 02:51:59;;;;;;;1.00;0.80;;;13.70;99.90;;;;;;5075688;28;20180;-82
2021/07/11 02:54:38;;;;;;;1.20;0.90;;;13.70;99.90;;;;;;5075475;28;20181;-82
2021/07/11 02:57:07;;;;;;;0.80;0.70;;;13.60;99.90;;;;;;5075363;28;20213;-82
2021/07/11 02:59:34;;;;;;;1.93;0.73;;;13.60;99.90;;;;;;5075758;28;20201;-82
2021/07/11 03:02:03;;;;;;;2.50;0.80;;;13.60;99.90;;;;;;5075016;28;20196;-82
2021/07/11 03:04:37;;;;;;;1.10;0.83;;;13.60;99.90;;;;;;5074555;28;20173;-82
2021/07/11 03:07:04;;;;;;;1.27;0.80;;;13.60;99.90;;;;;;5076347;28;20165;-82
2021/07/11 03:09:30;;;;;;;0.73;0.70;;;13.50;99.90;;;;;;5074661;28;20207;-82
2021/07/11 03:11:56;;;;;;;2.03;1.00;;;13.60;99.90;;;;;;5074512;28;20184;-82
2021/07/11 03:14:24;;;;;;;1.47;0.87;;;13.60;99.90;;;;;;5074608;28;20201;-83
2021/07/11 03:16:54;;;;;;;1.63;0.73;;;13.50;99.90;;;;;;5075898;28;20201;-82
2021/07/11 03:19:20;;;;;;;1.03;0.63;;;13.40;99.90;;;;;;5074292;28;20204;-82
2021/07/11 03:21:48;;;;;;;1.27;0.80;;;13.30;99.90;;;;;;5077074;28;20183;-82
2021/07/11 03:24:18;;;;;;;1.90;0.57;;;13.30;99.90;;;;;;5077905;28;20661;-82
2021/07/11 03:26:44;;;;;;;0.80;0.70;;;13.30;99.90;;;;;;5079650;28;20189;-82
2021/07/11 03:29:29;;;;;;;4.10;0.80;;;13.20;99.90;;;;;;5090443;28;20204;-82
2021/07/11 03:31:56;;;;;;;0.60;0.60;;;13.20;99.90;;;;;;5079834;28;20664;-83
2021/07/11 03:34:30;;;;;;;3.23;0.73;;;13.20;99.90;;;;;;5079906;28;20246;-82
2021/07/11 03:36:59;;;;;;;0.87;0.80;;;13.20;99.90;;;;;;5079149;28;20204;-83
2021/07/11 03:39:27;;;;;;;0.60;0.60;;;13.20;99.90;;;;;;5080866;28;20203;-82
2021/07/11 03:41:54;;;;;;;0.97;0.67;;;13.20;99.90;;;;;;5080670;28;20258;-82
2021/07/11 03:44:21;;;;;;;1.00;0.60;;;13.20;99.90;;;;;;5079510;28;20234;-83
2021/07/11 03:46:49;;;;;;;0.70;0.60;;;13.10;99.90;;;;;;5081065;28;20187;-82
2021/07/11 03:49:17;;;;;;;1.00;0.70;;;13.20;99.90;;;;;;5079872;28;20242;-83
2021/07/11 03:51:45;;;;;;;0.83;0.73;;;13.20;99.90;;;;;;5081080;28;20180;-83
2021/07/11 03:54:12;;;;;;;1.40;0.70;;;13.20;99.90;;;;;;5081143;28;20180;-82
2021/07/11 03:56:39;;;;;;;2.10;0.70;;;13.20;99.90;;;;;;5079487;28;20214;-82
2021/07/11 03:59:08;;;;;;;0.80;0.80;;;13.20;99.90;;;;;;5079677;28;20177;-82
2021/07/11 04:01:36;;;;;;;0.83;0.63;;;13.20;99.90;;;;;;5079663;28;20617;-82
2021/07/11 04:04:07;;;;;;;0.80;0.70;;;13.20;99.90;;;;;;5081295;28;20210;-83
2021/07/11 04:06:33;;;;;;;0.70;0.70;;;13.20;99.90;;;;;;5079681;28;20169;-82
2021/07/11 04:09:03;;;;;;;2.63;0.60;;;13.20;99.90;;;;;;5079477;28;20180;-82
2021/07/11 04:11:32;;;;;;;1.10;0.80;;;13.20;99.90;;;;;;5081298;28;20168;-82
2021/07/11 04:13:57;;;;;;;0.93;0.73;;;13.20;99.90;;;;;;5080912;28;20630;-82
2021/07/11 04:16:27;;;;;;;1.03;0.70;;;13.20;99.90;;;;;;5079628;28;20240;-82
2021/07/11 04:18:56;;;;;;;0.90;0.60;;;13.20;99.90;;;;;;5081007;28;20180;-82
2021/07/11 04:21:26;;;;;;;0.93;0.90;;;13.20;99.90;;;;;;5079821;28;20199;-83
2021/07/11 04:23:55;;;;;;;2.43;0.90;;;13.10;99.90;;;;;;5080046;28;20270;-83
2021/07/11 04:26:23;;;;;;;1.10;0.70;;;13.10;99.90;;;;;;5079971;28;20192;-83
2021/07/11 04:28:49;;;;;;;0.93;0.70;;;13.10;99.90;;;;;;5085404;28;20188;-82
2021/07/11 04:31:17;;;;;;;1.30;0.80;;;13.20;99.90;;;;;;5080406;28;20204;-82
2021/07/11 04:33:44;;;;;;;0.70;0.70;;;13.20;99.90;;;;;;5079622;28;20188;-82
2021/07/11 04:36:10;;;;;;;1.93;0.60;;;13.20;99.90;;;;;;5080187;28;20211;-82
2021/07/11 04:38:36;;;;;;;2.43;0.77;;;13.20;99.90;;;;;;5080382;28;20243;-82
2021/07/11 04:41:04;;;;;;;1.20;0.60;;;13.20;99.90;;;;;;5078602;28;20210;-82
2021/07/11 04:43:30;;;;;;;1.47;1.20;;;13.20;99.90;;;;;;5080629;28;20180;-82
2021/07/11 04:45:55;;;;;;;0.60;0.60;;;13.30;99.90;;;;;;5079726;28;20196;-82
2021/07/11 04:48:21;;;;;;;0.70;0.70;;;13.40;99.90;;;;;;5078568;28;20268;-82
2021/07/11 04:50:49;;;;;;;0.77;0.67;;;13.40;99.90;;;;;;5078816;28;20220;-82
2021/07/11 04:53:16;;;;;;;1.63;0.80;;;13.40;99.90;;;;;;5079422;28;20255;-81
2021/07/11 04:55:45;;;;;;;0.77;0.63;;;13.40;99.90;;;;;;5079527;28;20745;-82
2021/07/11 04:58:11;;;;;;;0.63;0.63;;;13.40;99.90;;;;;;5078180;28;20235;-82
2021/07/11 05:00:36;;;;;;;0.80;0.70;;;13.40;99.90;;;;;;5078075;28;20678;-82
2021/07/11 05:03:02;;;;;;;2.30;0.70;;;13.40;99.90;;;;;;5079579;28;20172;-82
2021/07/11 05:05:28;;;;;;;1.37;0.70;;;13.50;99.90;;;;;;5077713;28;20181;-82
2021/07/11 05:07:53;;;;;;;1.70;0.60;;;13.40;99.90;;;;;;5078251;28;20651;-82
2021/07/11 05:10:19;;;;;;;0.60;0.60;;;13.40;99.90;;;;;;5078191;28;20203;-82
2021/07/11 05:12:45;;;;;;;3.50;0.60;;;13.40;99.90;;;;;;5078476;28;20661;-82
2021/07/11 05:15:11;;;;;;;2.00;0.70;;;13.40;99.90;;;;;;5079131;28;20173;-82
2021/07/11 05:17:37;;;;;;;0.80;0.60;;;13.40;99.90;;;;;;5079426;28;20169;-82
2021/07/11 05:20:05;;;;;;;0.70;0.60;;;13.50;99.90;;;;;;5077813;28;20200;-82
2021/07/11 05:22:30;;;;;;;1.70;0.70;;;13.50;99.90;;;;;;5077647;28;20169;-82
2021/07/11 05:24:56;;;;;;;1.40;0.70;;;13.60;99.90;;;;;;5078192;28;20294;-82
2021/07/11 05:27:22;;;;;;;1.30;0.73;;;13.60;99.90;;;;;;5077703;28;20192;-82
2021/07/11 05:29:47;;;;;;;0.83;0.60;;;13.70;99.90;;;;;;5077186;28;20207;-83
2021/07/11 05:32:13;;;;;;;0.93;0.70;;;13.80;99.90;;;;;;5077232;28;20192;-82
2021/07/11 05:34:39;;;;;;;2.33;0.70;;;13.80;99.90;;;;;;5078618;28;20184;-82
2021/07/11 05:37:04;;;;;;;0.73;0.50;;;13.80;99.90;;;;;;5078642;28;20216;-82
2021/07/11 05:39:30;;;;;;;0.60;0.60;;;13.80;99.90;;;;;;5076914;28;20310;-82
2021/07/11 05:41:56;;;;;;;0.80;0.57;;;13.90;99.90;;;;;;5078122;28;20533;-82
2021/07/11 05:44:21;;;;;;;0.90;0.70;;;14.00;99.90;;;;;;5076359;28;20180;-82
2021/07/11 05:46:47;;;;;;;0.60;0.50;;;14.00;99.90;;;;;;5078220;28;20259;-82
2021/07/11 05:49:13;;;;;;;0.73;0.60;;;14.10;99.90;;;;;;5077828;28;20189;-82
2021/07/11 05:51:39;;;;;;;1.97;0.70;;;14.10;99.90;;;;;;5077935;28;20179;-82
2021/07/11 05:54:04;;;;;;;0.80;0.60;;;14.10;99.90;;;;;;5078100;28;20183;-82
2021/07/11 05:56:30;;;;;;;0.50;0.50;;;14.20;99.90;;;;;;5077341;28;20580;-82
2021/07/11 05:58:56;;;;;;;1.50;0.57;;;14.20;99.90;;;;;;5076901;28;20173;-81
2021/07/11 06:01:22;;;;;;;1.07;0.70;;;14.30;99.90;;;;;;5075384;28;20177;-82
2021/07/11 06:03:48;;;;;;;1.20;0.80;;;14.30;99.90;;;;;;5075613;28;20264;-81
2021/07/11 06:06:14;;;;;;;0.77;0.60;;;14.30;99.90;;;;;;5075207;28;20647;-81
2021/07/11 06:08:39;;;;;;;1.37;0.90;;;14.40;99.90;;;;;;5075025;28;20181;-81
2021/07/11 06:11:05;;;;;;;1.17;1.00;;;14.40;99.90;;;;;;5086803;28;20244;-81
2021/07/11 06:13:31;;;;;;;1.50;0.70;;;14.50;99.90;;;;;;5079391;28;20181;-81
2021/07/11 06:15:56;;;;;;;1.20;0.87;;;14.60;99.90;;;;;;5077070;28;20201;-81
2021/07/11 06:18:22;;;;;;;1.30;0.80;;;14.70;99.90;;;;;;5076619;28;20227;-81
2021/07/11 06:20:48;;;;;;;1.50;0.87;;;14.90;99.90;;;;;;5076851;28;20249;-82
2021/07/11 06:23:14;;;;;;;1.23;0.80;;;15.00;99.90;;;;;;5077961;28;20556;-81
2021/07/11 06:25:39;;;;;;;1.80;0.90;;;15.00;99.90;;;;;;5077077;28;20181;-82
2021/07/11 06:28:05;;;;;;;1.17;0.80;;;15.10;99.90;;;;;;5076539;28;20203;-81
2021/07/11 06:30:31;;;;;;;0.97;0.90;;;15.20;99.90;;;;;;5078618;28;20197;-81
2021/07/11 06:32:57;;;;;;;0.87;0.80;;;15.20;99.90;;;;;;5077191;28;20263;-81
2021/07/11 06:35:24;;;;;;;0.93;0.70;;;15.20;99.90;;;;;;5078407;28;20646;-81
2021/07/11 06:37:51;;;;;;;1.77;1.00;;;15.30;99.90;;;;;;5078685;28;20169;-81
2021/07/11 06:40:20;;;;;;;1.50;0.97;;;15.30;99.90;;;;;;5078932;28;20670;-81
2021/07/11 06:42:45;;;;;;;2.77;1.00;;;15.30;99.90;;;;;;5077655;28;20168;-81
2021/07/11 06:45:13;;;;;;;1.03;0.93;;;15.30;99.90;;;;;;5077575;28;20180;-82
2021/07/11 06:47:39;;;;;;;1.10;1.00;;;15.30;99.90;;;;;;5078656;28;20169;-81
2021/07/11 06:50:07;;;;;;;1.43;1.10;;;15.30;99.90;;;;;;5083829;28;20220;-81
2021/07/11 06:52:34;;;;;;;1.37;1.10;;;15.40;99.90;;;;;;5076501;28;20219;-81
2021/07/11 06:55:01;;;;;;;0.97;0.70;;;15.50;99.90;;;;;;5076685;28;20207;-81
2021/07/11 06:57:27;;;;;;;1.63;1.20;;;15.40;99.90;;;;;;5076465;28;20205;-81
2021/07/11 06:59:52;;;;;;;1.40;0.90;;;15.50;99.90;;;;;;5076499;28;20537;-81
2021/07/11 07:02:18;;;;;;;2.17;1.03;;;15.70;99.90;;;;;;5076331;28;20657;-81
2021/07/11 07:04:44;;;;;;;1.13;1.00;;;15.70;99.90;;;;;;5077732;28;20699;-81
2021/07/11 07:07:09;;;;;;;1.10;1.00;;;15.80;99.90;;;;;;5076100;28;20586;-81
2021/07/11 07:09:35;;;;;;;1.73;1.10;;;16.00;99.90;;;;;;5075948;28;20280;-81
2021/07/11 07:12:01;;;;;;;1.70;1.20;;;16.10;99.90;;;;;;5076560;28;20254;-81
2021/07/11 07:14:26;;;;;;;1.07;0.80;;;16.20;99.90;;;;;;5078216;28;20299;-81
2021/07/11 07:16:52;;;;;;;1.00;0.87;;;16.30;99.90;;;;;;5077827;28;20197;-81
2021/07/11 07:19:18;;;;;;;0.90;0.80;;;16.40;99.90;;;;;;5078299;28;20185;-81
2021/07/11 07:21:43;;;;;;;1.30;1.10;;;16.40;99.90;;;;;;5076656;28;20181;-81
2021/07/11 07:24:09;;;;;;;1.10;1.00;;;16.40;99.90;;;;;;5078580;28;20175;-81
2021/07/11 07:26:34;;;;;;;2.03;1.10;;;16.50;99.90;;;;;;5078667;28;20172;-81
2021/07/11 07:29:00;;;;;;;1.27;0.90;;;16.60;99.90;;;;;;5078038;28;20192;-81
2021/07/11 07:31:26;;;;;;;1.13;1.03;;;16.70;99.90;;;;;;5076614;28;20530;-81
2021/07/11 07:33:51;;;;;;;1.43;1.20;;;16.80;99.90;;;;;;5076303;28;20185;-81
2021/07/11 07:36:18;;;;;;;2.97;0.90;;;16.80;99.90;;;;;;5076856;28;20212;-81
2021/07/11 07:38:43;;;;;;;2.33;0.90;;;16.80;99.90;;;;;;5077206;28;20602;-81
2021/07/11 07:41:09;;;;;;;1.23;1.00;;;16.80;99.90;;;;;;5076047;28;20196;-81
2021/07/11 07:43:35;;;;;;;3.83;1.10;;;16.90;99.90;;;;;;5077975;28;20169;-81
2021/07/11 07:46:00;;;;;;;2.13;1.30;;;17.00;99.90;;;;;;5078444;28;20648;-81
2021/07/11 07:48:26;;;;;;;1.47;1.37;;;17.00;99.90;;;;;;5078467;28;20174;-81
2021/07/11 07:50:52;;;;;;;1.77;1.10;;;17.10;99.90;;;;;;5078636;28;20555;-81
2021/07/11 07:53:17;;;;;;;5.27;1.37;;;17.10;99.90;;;;;;5076918;28;20176;-81
2021/07/11 07:55:43;;;;;;;1.20;1.10;;;17.30;99.90;;;;;;5078533;28;20701;-81
2021/07/11 07:58:09;;;;;;;1.33;1.23;;;17.40;99.90;;;;;;5078415;28;20176;-81
2021/07/11 08:00:35;;;;;;;2.20;1.20;;;17.40;99.90;;;;;;5077790;28;20199;-81
2021/07/11 08:03:01;;;;;;;1.43;1.30;;;17.60;99.90;;;;;;5076743;28;20589;-81
2021/07/11 08:05:27;;;;;;;1.30;1.20;;;17.70;99.90;;;;;;5078189;28;20169;-81
2021/07/11 08:07:53;;;;;;;3.60;1.23;;;17.60;99.90;;;;;;5078494;28;20172;-81
2021/07/11 08:10:18;;;;;;;4.43;1.27;;;17.60;99.90;;;;;;5079556;28;20196;-81
2021/07/11 08:12:46;;;;;;;1.30;1.20;;;17.50;99.90;;;;;;5079460;28;20244;-81
2021/07/11 08:15:16;;;;;;;1.40;1.30;;;17.60;99.90;;;;;;5078459;28;20203;-81
2021/07/11 08:17:52;;;;;;;1.63;1.20;;;17.70;99.90;;;;;;5079202;28;20165;-81
2021/07/11 08:20:20;;;;;;;1.70;1.60;;;17.70;99.90;;;;;;5078114;28;20201;-81
2021/07/11 08:22:46;;;;;;;1.30;1.20;;;17.60;99.90;;;;;;5078239;28;20235;-80
2021/07/11 08:25:13;;;;;;;1.20;1.10;;;17.80;99.90;;;;;;5079372;28;20169;-81
2021/07/11 08:27:40;;;;;;;2.23;1.67;;;18.00;99.90;;;;;;5079605;28;20192;-81
2021/07/11 08:30:08;;;;;;;1.20;1.10;;;18.40;99.90;;;;;;5079708;28;20202;-81
2021/07/11 08:32:34;;;;;;;2.00;1.70;;;18.70;99.90;;;;;;5078273;28;20174;-81
2021/07/11 08:35:00;;;;;;;1.60;1.50;;;19.00;99.90;;;;;;5078526;28;20177;-81
2021/07/11 08:37:26;;;;;;;1.60;1.50;;;19.00;99.90;;;;;;5078343;28;20279;-81
2021/07/11 08:39:52;;;;;;;1.93;1.50;;;18.90;99.90;;;;;;5077972;28;20185;-81
2021/07/11 08:42:19;;;;;;;1.93;1.50;;;18.80;99.90;;;;;;5078372;28;20166;-81
2021/07/11 08:44:45;;;;;;;3.43;1.70;;;18.60;99.90;;;;;;5076837;28;20189;-81
2021/07/11 08:47:11;;;;;;;1.60;1.27;;;18.90;99.90;;;;;;5076611;28;20335;-81
2021/07/11 08:49:37;;;;;;;1.60;1.50;;;19.10;99.90;;;;;;5076000;28;20195;-81
2021/07/11 08:52:04;;;;;;;2.57;1.90;;;19.20;99.90;;;;;;5075843;28;20181;-81
2021/07/11 08:54:30;;;;;;;1.93;1.60;;;19.00;99.90;;;;;;5090745;28;20182;-81
2021/07/11 08:57:01;;;;;;;1.93;1.70;;;18.80;99.90;;;;;;5082066;28;20716;-81
2021/07/11 08:59:28;;;;;;;2.10;1.90;;;18.60;99.90;;;;;;5082071;28;20663;-81
2021/07/11 09:01:54;;;;;;;2.60;2.00;;;18.60;99.90;;;;;;5081860;28;20175;-81
2021/07/11 09:04:20;;;;;;;2.00;1.70;;;18.90;99.90;;;;;;5081632;28;20181;-81
2021/07/11 09:06:53;;;;;;;2.40;1.90;;;19.30;99.90;;;;;;5083555;28;20235;-81
2021/07/11 09:09:30;;;;;;;1.83;1.70;;;19.60;99.90;;;;;;5083588;28;20253;-81
2021/07/11 09:12:06;;;;;;;1.60;1.50;;;19.80;99.90;;;;;;5082228;28;20221;-80
2021/07/11 09:14:43;;;;;;;2.40;1.70;;;20.30;99.90;;;;;;5078912;28;20284;-81
2021/07/11 09:17:11;;;;;;;2.00;1.80;;;20.70;99.90;;;;;;5080344;28;20210;-81
2021/07/11 09:19:42;;;;;;;1.60;1.50;;;20.70;99.90;;;;;;5075197;28;20200;-78
2021/07/11 09:22:16;;;;;;;2.40;1.70;;;20.60;99.90;;;;;;5076946;28;20199;-79
2021/07/11 09:24:54;;;;;;;2.20;1.90;;;20.70;99.90;;;;;;5086805;28;20180;-80
2021/07/11 09:27:23;;;;;;;2.20;1.60;;;20.80;99.90;;;;;;5097222;28;20160;-80
2021/07/11 09:29:49;;;;;;;1.80;1.50;;;20.90;99.90;;;;;;5097669;28;20294;-81
2021/07/11 09:32:24;;;;;;;2.43;1.50;;;21.20;99.90;;;;;;5096451;28;20260;-80
2021/07/11 09:34:49;;;;;;;3.03;2.20;;;21.50;99.90;;;;;;5098510;28;20175;-80
2021/07/11 09:37:18;;;;;;;4.47;3.40;;;21.60;99.90;;;;;;5097705;28;20207;-79
2021/07/11 09:39:55;;;;;;;2.03;1.83;;;21.40;99.90;;;;;;5100023;28;20210;-80
2021/07/11 09:42:34;;;;;;;1.73;1.50;;;21.10;99.90;;;;;;5092636;28;20209;-78
2021/07/11 09:45:03;;;;;;;1.67;1.57;;;20.80;99.90;;;;;;5085297;28;20646;-79
2021/07/11 09:47:31;;;;;;;1.67;1.57;;;20.70;99.90;;;;;;5076476;28;20199;-79
2021/07/11 09:50:02;;;;;;;1.77;1.67;;;20.70;99.90;;;;;;5077746;28;20697;-79
2021/07/11 09:52:29;;;;;;;3.63;1.57;;;20.70;99.90;;;;;;5079788;28;20587;-83
2021/07/11 09:55:06;;;;;;;2.70;1.50;;;20.50;99.90;;;;;;5096440;28;20176;-79
2021/07/11 09:57:37;;;;;;;2.70;1.77;;;20.40;99.90;;;;;;5083357;28;20200;-79
2021/07/11 10:00:13;;;;;;;2.10;1.50;;;20.50;99.90;;;;;;5083739;28;20196;-78
2021/07/11 10:02:44;;;;;;;1.80;1.60;;;20.90;99.90;;;;;;5095001;28;20187;-78
2021/07/11 10:05:11;;;;;;;4.13;1.77;;;21.20;99.90;;;;;;5084288;28;20554;-78
2021/07/11 10:07:38;;;;;;;1.53;1.43;;;21.70;99.90;;;;;;5076242;28;20181;-79
2021/07/11 10:10:07;;;;;;;1.93;1.73;;;22.20;99.90;;;;;;5076516;28;20257;-80
2021/07/11 10:12:33;;;;;;;1.63;1.53;;;22.20;99.90;;;;;;5073567;28;20177;-77
2021/07/11 10:14:59;;;;;;;2.17;1.97;;;21.90;99.90;;;;;;5074341;28;20177;-79
2021/07/11 10:17:27;;;;;;;1.57;1.47;;;21.60;99.90;;;;;;5075696;28;20220;-78
2021/07/11 10:19:54;;;;;;;2.37;1.60;;;21.20;99.90;;;;;;5075572;28;20268;-77
2021/07/11 10:22:20;;;;;;;1.90;1.53;;;20.70;99.90;;;;;;5074922;28;20212;-78
2021/07/11 10:24:49;;;;;;;1.57;1.47;;;20.30;99.90;;;;;;5074579;28;20658;-77
2021/07/11 10:27:24;;;;;;;4.03;2.03;;;19.90;99.90;;;;;;5074966;28;20578;-77
2021/07/11 10:29:52;;;;;;;5.17;1.70;;;19.60;99.90;;;;;;5075019;28;20200;-77
2021/07/11 10:32:32;;;;;;;2.10;1.80;;;19.50;99.90;;;;;;5074347;28;20177;-77
2021/07/11 10:35:21;;;;;;;2.30;2.10;;;19.50;99.90;;;;;;5074359;28;20172;-77
2021/07/11 10:37:53;;;;;;;1.77;1.60;;;19.50;99.90;;;;;;5072994;28;20179;-77
2021/07/11 10:40:29;;;;;;;1.87;1.73;;;19.70;99.90;;;;;;5074645;28;20252;-78
2021/07/11 10:42:55;;;;;;;2.33;1.63;;;19.80;99.90;;;;;;5077179;28;20248;-79
2021/07/11 10:45:21;;;;;;;2.77;2.10;;;20.00;99.90;;;;;;5077777;28;20201;-79
2021/07/11 10:47:47;;;;;;;2.27;1.77;;;20.20;99.90;;;;;;5077929;28;20248;-79
2021/07/11 10:50:31;;;;;;;2.00;1.50;;;20.60;99.90;;;;;;5076739;28;20276;-77
2021/07/11 10:52:59;;;;;;;2.37;1.93;;;21.10;99.90;;;;;;5074975;28;20161;-78
2021/07/11 10:55:35;;;;;;;2.30;1.30;;;22.00;99.90;;;;;;5076408;28;20200;-78
2021/07/11 10:58:10;;;;;;;1.97;1.47;;;22.90;99.90;;;;;;5075585;28;20694;-78
2021/07/11 11:00:36;;;;;;;1.67;1.57;;;23.90;99.90;;;;;;5074865;28;20568;-79
2021/07/11 11:03:20;;;;;;;2.40;1.70;;;24.60;99.90;;;;;;5076801;28;20177;-78
2021/07/11 11:05:48;;;;;;;1.43;1.30;;;24.80;99.90;;;;;;5075204;28;20626;-78
2021/07/11 11:08:17;;;;;;;1.70;1.50;;;24.90;99.90;;;;;;5076157;28;20274;-78
2021/07/11 11:10:45;;;;;;;4.30;1.40;;;24.70;99.90;;;;;;5077210;28;20201;-79
2021/07/11 11:13:17;;;;;;;1.50;1.13;;;24.80;99.90;;;;;;5075703;28;20225;-78
2021/07/11 11:15:57;;;;;;;1.40;1.30;;;24.80;99.90;;;;;;5075458;28;20205;-77
2021/07/11 11:18:35;;;;;;;1.90;1.30;;;24.30;99.90;;;;;;5076387;28;20161;-78
2021/07/11 11:21:07;;;;;;;2.87;1.30;;;23.80;99.90;;;;;;5075943;28;20269;-79
2021/07/11 11:23:47;;;;;;;2.20;1.30;;;23.80;99.90;;;;;;5078628;28;20173;-78
2021/07/11 11:26:25;;;;;;;2.63;1.50;;;24.00;99.90;;;;;;5078304;28;20221;-78
2021/07/11 11:28:52;;;;;;;1.30;1.20;;;24.20;99.90;;;;;;5077499;28;20186;-78
2021/07/11 11:31:35;;;;;;;1.97;1.53;;;24.50;99.90;;;;;;5076838;28;20273;-78
2021/07/11 11:34:05;;;;;;;1.50;1.30;;;24.90;99.90;;;;;;5077218;28;20692;-79
2021/07/11 11:36:32;;;;;;;1.40;1.30;;;24.80;99.90;;;;;;5077492;28;20199;-79
2021/07/11 11:39:06;;;;;;;1.60;1.20;;;23.50;99.90;;;;;;5075383;28;20676;-78
2021/07/11 11:41:32;;;;;;;2.03;1.57;;;23.50;99.90;;;;;;5077637;28;20221;-80
2021/07/11 11:44:10;;;;;;;1.50;1.40;;;22.90;99.90;;;;;;5080665;28;20610;-80
2021/07/11 11:46:36;;;;;;;1.83;1.33;;;22.30;99.90;;;;;;5081907;28;20194;-82
2021/07/11 11:49:05;;;;;;;3.33;1.40;;;23.10;99.90;;;;;;5080167;28;20547;-82
2021/07/11 11:51:32;;;;;;;2.63;1.30;;;23.20;99.90;;;;;;5080660;28;20183;-80
2021/07/11 11:53:58;;;;;;;1.47;1.20;;;24.30;99.90;;;;;;5080047;28;20180;-83
2021/07/11 11:56:24;;;;;;;3.10;1.60;;;24.40;99.90;;;;;;5079756;28;20573;-79
2021/07/11 11:58:59;;;;;;;1.30;1.20;;;24.20;99.90;;;;;;5080627;28;20183;-78
2021/07/11 12:01:33;;;;;;;1.67;1.57;;;25.20;99.90;;;;;;5080155;28;20620;-79
2021/07/11 12:04:16;;;;;;;2.77;1.37;;;25.20;99.90;;;;;;5079958;28;20575;-79
2021/07/11 12:06:47;;;;;;;2.40;1.07;;;24.90;99.90;;;;;;5079009;28;20196;-79
2021/07/11 12:09:15;;;;;;;2.27;1.33;;;24.70;99.90;;;;;;5078925;28;20165;-79
2021/07/11 12:11:41;;;;;;;1.83;1.73;;;24.60;99.90;;;;;;5078439;28;20180;-79
2021/07/11 12:14:17;;;;;;;1.50;1.40;;;24.00;99.90;;;;;;5080288;28;20184;-80
2021/07/11 12:16:43;;;;;;;2.33;1.40;;;24.60;99.90;;;;;;5078664;28;20609;-80
2021/07/11 12:19:10;;;;;;;1.83;1.10;;;24.30;99.90;;;;;;5079206;28;20221;-79
2021/07/11 12:21:43;;;;;;;1.50;1.40;;;24.30;99.90;;;;;;5080618;28;20245;-80
2021/07/11 12:24:18;;;;;;;1.67;1.57;;;23.90;99.90;;;;;;5080306;28;20161;-80
2021/07/11 12:26:56;;;;;;;2.30;1.00;;;24.00;99.90;;;;;;5081059;28;20175;-79
2021/07/11 12:29:30;;;;;;;1.50;1.10;;;24.70;99.90;;;;;;5080329;28;20692;-83
2021/07/11 12:32:01;;;;;;;1.30;1.07;;;24.30;99.90;;;;;;5080810;28;20179;-82
2021/07/11 12:34:27;;;;;;;1.83;1.20;;;23.60;99.90;;;;;;5081474;28;20156;-82
2021/07/11 12:37:00;;;;;;;1.70;1.40;;;22.90;99.90;;;;;;5080220;28;20241;-81
2021/07/11 12:39:26;;;;;;;1.63;1.20;;;22.90;99.90;;;;;;5080243;28;20189;-80
2021/07/11 12:41:53;;;;;;;3.70;1.83;;;24.00;99.90;;;;;;5082396;28;20169;-80
2021/07/11 12:44:33;;;;;;;1.60;1.20;;;24.30;99.90;;;;;;5083460;28;20631;-80
2021/07/11 12:47:10;;;;;;;1.10;1.00;;;24.60;99.90;;;;;;5084305;28;20162;-80
2021/07/11 12:49:37;;;;;;;1.20;1.10;;;24.10;99.90;;;;;;5084887;28;20197;-80
2021/07/11 12:52:12;;;;;;;2.13;1.33;;;24.20;99.90;;;;;;5084684;28;20172;-80
2021/07/11 12:54:38;;;;;;;1.40;1.20;;;23.90;99.90;;;;;;5082882;28;20177;-81